Aviation Digital Data Service (ADDS)

Output produced by METARs form (0000 UTC 24 October 2019)
found at http://www.aviationweather.gov/metar/data/
 
NSFA 232200Z 06010KT 9999 FEW028 31/25 Q1011 NOSIG
NSFA 232100Z 06011KT 020V100 9999 FEW028 31/25 Q1012 RMK NIL
NSFA 232000Z 06014KT 9999 SCT026 30/25 Q1012 RMK NIL
NSFA 231900Z 07010KT 9999 SCT026 29/26 Q1012 RMK NIL
NSFA 231800Z 08005KT 9999 FEW025 28/25 Q1011 NOSIG
NSFA 231700Z 09004KT 9999 FEW024 SCT070 25/23 Q1011 NOSIG
NSFA 231600Z 10004KT 9999 FEW026 25/24 Q1010 NOSIG
NSFA 231500Z 09004KT 9999 SCT020 25/23 Q1010 NOSIG
NSFA 231400Z 08004KT 9999 FEW025 25/24 Q1010 NOSIG
NSFA 231300Z 10004KT 9999 FEW028 25/24 Q1010 NOSIG
NSFA 231200Z 10005KT 9999 FEW028 26/24 Q1011 NOSIG
NSFA 231100Z 11003KT 9999 FEW030 26/25 Q1012 NOSIG
NSFA 231000Z 10004KT 9999 FEW026 26/25 Q1012 RMK NIL
NSFA 230900Z 08004KT 9999 FEW026 26/25 Q1012 RMK NIL
NSFA 230800Z 08004KT 9999 SCT023 26/25 Q1011 RMK NIL
NSFA 230700Z 10004KT 9999 SCT023 27/24 Q1011 RMK NIL
NSFA 230600Z 08010KT 9999 SCT023 28/25 Q1010 RMK NIL
NSFA 230500Z 05010KT 010V090 9999 SCT023 29/24 Q1009 RMK NIL
NSFA 230400Z 05011KT 030V090 SCT022 31/24 Q1009 RMK NIL
NSFA 230300Z 03014KT 9999 SCT022 32/25 Q1009 RMK NIL
NSFA 230200Z 06016KT 9999 SCT028 32/26 Q1009 RMK NIL
NSFA 230100Z 06016KT 9999 SCT028 32/26 Q1010 RMK NIL
TAF NSFA 232314Z 2400/2424 06009KT 9999 FEW022 SCT045 
     PROB30 
     TEMPO 2406/2412 5000 SHRA BKN015